createdAt,value
2018-10-21T00:00:32.092Z,10.37
2018-10-21T00:03:02.583Z,10.93
2018-10-21T00:05:32.886Z,13.10
2018-10-21T00:08:03.255Z,12.17
2018-10-21T00:10:33.791Z,12.53
2018-10-21T00:13:04.123Z,10.50
2018-10-21T00:15:34.695Z,12.40
2018-10-21T00:18:05.124Z,11.43
2018-10-21T00:20:35.531Z,12.33
2018-10-21T00:23:06.055Z,11.53
2018-10-21T00:25:36.773Z,12.50
2018-10-21T00:28:07.740Z,13.57
2018-10-21T00:30:38.363Z,13.17
2018-10-21T00:33:08.817Z,14.50
2018-10-21T00:35:38.591Z,13.40
2018-10-21T00:38:08.936Z,10.93
2018-10-21T00:40:39.299Z,8.33
2018-10-21T00:43:09.726Z,12.87
2018-10-21T00:45:40.035Z,11.40
2018-10-21T00:48:10.415Z,12.50
2018-10-21T00:50:41.005Z,14.07
2018-10-21T00:53:11.481Z,12.43
2018-10-21T00:55:41.795Z,10.93
2018-10-21T00:58:12.108Z,10.77
2018-10-21T01:00:42.915Z,11.90
2018-10-21T01:03:13.423Z,11.13
2018-10-21T01:05:43.098Z,12.40
2018-10-21T01:08:13.382Z,11.67
2018-10-21T01:10:43.895Z,13.27
2018-10-21T01:13:14.272Z,13.83
2018-10-21T01:15:44.659Z,11.97
2018-10-21T01:18:15.003Z,11.97
2018-10-21T01:20:45.504Z,10.77
2018-10-21T01:23:15.777Z,11.73
2018-10-21T01:25:46.124Z,12.23
2018-10-21T01:28:16.543Z,12.37
2018-10-21T01:30:46.868Z,11.93
2018-10-21T01:33:16.666Z,9.53
2018-10-21T01:35:47.043Z,12.20
2018-10-21T01:38:17.486Z,12.13
2018-10-21T01:40:48.892Z,14.10
2018-10-21T01:43:23.446Z,12.23
2018-10-21T01:45:53.904Z,12.33
2018-10-21T01:48:25.330Z,12.67
2018-10-21T01:50:55.758Z,14.37
2018-10-21T01:53:26.391Z,16.30
2018-10-21T01:55:56.909Z,10.17
2018-10-21T01:58:27.376Z,9.03
2018-10-21T02:00:57.788Z,12.40
2018-10-21T02:03:28.240Z,9.53
2018-10-21T02:05:58.103Z,12.57
2018-10-21T02:08:28.535Z,12.40
2018-10-21T02:10:58.919Z,11.17
2018-10-21T02:13:29.336Z,9.30
2018-10-21T02:15:59.800Z,9.30
2018-10-21T02:18:44.827Z,8.90
2018-10-21T02:21:15.309Z,8.13
2018-10-21T02:23:45.701Z,10.77
2018-10-21T02:26:15.523Z,9.33
2018-10-21T02:28:45.668Z,10.57
2018-10-21T02:31:16.121Z,13.37
2018-10-21T02:33:46.604Z,11.00
2018-10-21T02:36:16.914Z,11.93
2018-10-21T02:38:46.582Z,10.53
2018-10-21T02:41:28.751Z,15.07
2018-10-21T02:43:59.052Z,9.57
2018-10-21T02:46:29.090Z,14.13
2018-10-21T02:49:00.235Z,11.63
2018-10-21T02:51:30.967Z,10.77
2018-10-21T02:54:01.349Z,14.33
2018-10-21T02:56:31.820Z,11.77
2018-10-21T02:59:02.048Z,11.47
2018-10-21T03:01:32.371Z,11.43
2018-10-21T03:04:02.666Z,10.87
2018-10-21T03:06:32.502Z,11.77
2018-10-21T03:09:03.045Z,13.07
2018-10-21T03:11:33.456Z,11.07
2018-10-21T03:14:04.153Z,12.33
2018-10-21T03:16:34.475Z,10.83
2018-10-21T03:19:04.808Z,12.33
2018-10-21T03:21:34.463Z,10.83
2018-10-21T03:24:04.803Z,10.13
2018-10-21T03:26:35.637Z,11.00
2018-10-21T03:29:06.141Z,10.07
2018-10-21T03:31:36.706Z,10.47
2018-10-21T03:34:06.780Z,13.53
2018-10-21T03:36:36.925Z,11.17
2018-10-21T03:39:09.629Z,11.17
2018-10-21T03:41:40.171Z,11.70
2018-10-21T03:44:10.455Z,9.07
2018-10-21T03:46:40.712Z,15.00
2018-10-21T03:49:11.043Z,10.47
2018-10-21T03:51:41.447Z,11.43
2018-10-21T03:54:11.749Z,11.47
2018-10-21T03:56:42.248Z,10.70
2018-10-21T03:59:12.761Z,10.50
2018-10-21T04:01:42.566Z,9.50
2018-10-21T04:04:12.969Z,15.97
2018-10-21T04:06:43.473Z,12.03
2018-10-21T04:09:13.698Z,18.90
2018-10-21T04:11:44.161Z,15.57
2018-10-21T04:14:14.468Z,16.93
2018-10-21T04:16:44.833Z,14.57
2018-10-21T04:19:15.555Z,13.63
2018-10-21T04:21:45.393Z,12.73
2018-10-21T04:24:15.782Z,11.50
2018-10-21T04:26:46.228Z,13.27
2018-10-21T04:29:16.641Z,12.07
2018-10-21T04:31:46.423Z,11.13
2018-10-21T04:34:16.882Z,11.57
2018-10-21T04:36:47.123Z,10.27
2018-10-21T04:40:30.676Z,12.30
2018-10-21T04:43:01.046Z,11.33
2018-10-21T04:45:31.331Z,11.77
2018-10-21T04:48:01.881Z,10.00
2018-10-21T04:50:32.198Z,12.73
2018-10-21T04:53:02.471Z,17.77
2018-10-21T04:55:32.162Z,17.57
2018-10-21T04:58:02.590Z,13.60
2018-10-21T05:00:33.292Z,15.40
2018-10-21T05:03:03.652Z,12.97
2018-10-21T05:05:34.156Z,13.73
2018-10-21T05:08:04.692Z,16.17
2018-10-21T05:10:38.257Z,15.23
2018-10-21T05:13:09.564Z,13.23
2018-10-21T05:15:40.162Z,15.10
2018-10-21T05:18:10.425Z,14.40
2018-10-21T05:20:40.157Z,16.73
2018-10-21T05:23:10.485Z,18.67
2018-10-21T05:25:40.847Z,17.10
2018-10-21T05:28:11.352Z,13.80
2018-10-21T05:30:41.728Z,15.47
2018-10-21T05:33:11.436Z,15.60
2018-10-21T05:35:40.943Z,17.83
2018-10-21T05:38:11.260Z,18.47
2018-10-21T05:40:41.066Z,25.53
2018-10-21T05:43:11.512Z,15.60
2018-10-21T05:45:41.231Z,13.50
2018-10-21T05:48:11.468Z,17.07
2018-10-21T05:50:41.952Z,17.53
2018-10-21T05:53:12.309Z,23.97
2018-10-21T05:55:42.849Z,20.23
2018-10-21T05:58:13.208Z,21.60
2018-10-21T06:00:43.602Z,20.40
2018-10-21T06:03:14.084Z,23.17
2018-10-21T06:05:46.487Z,18.83
2018-10-21T06:08:16.815Z,19.33
2018-10-21T06:10:47.225Z,16.23
2018-10-21T06:13:16.961Z,17.63
2018-10-21T06:15:47.664Z,18.60
2018-10-21T06:18:21.342Z,18.90
2018-10-21T06:20:54.303Z,18.33
2018-10-21T06:23:24.564Z,20.97
2018-10-21T06:25:54.869Z,18.13
2018-10-21T06:28:25.599Z,18.93
2018-10-21T06:30:56.095Z,17.03
2018-10-21T06:33:26.579Z,20.40
2018-10-21T06:35:56.775Z,23.33
2018-10-21T06:38:27.196Z,25.40
2018-10-21T06:40:57.594Z,22.20
2018-10-21T06:43:30.124Z,22.20
2018-10-21T06:46:00.453Z,20.80
2018-10-21T06:48:31.063Z,21.60
2018-10-21T06:51:01.238Z,20.70
2018-10-21T06:53:31.515Z,21.50
2018-10-21T06:56:01.827Z,22.13
2018-10-21T06:58:32.244Z,19.63
2018-10-21T07:01:02.540Z,22.03
2018-10-21T07:03:32.930Z,24.23
2018-10-21T07:06:09.999Z,19.70
2018-10-21T07:08:40.262Z,21.90
2018-10-21T07:11:10.660Z,20.03
2018-10-21T07:13:40.932Z,21.43
2018-10-21T07:16:11.640Z,20.67
2018-10-21T07:18:41.836Z,20.47
2018-10-21T07:21:11.591Z,19.60
2018-10-21T07:23:42.041Z,19.27
2018-10-21T07:26:12.475Z,24.90
2018-10-21T07:28:42.952Z,21.03
2018-10-21T07:31:13.450Z,23.70
2018-10-21T07:33:43.871Z,26.40
2018-10-21T07:36:14.235Z,26.33
2018-10-21T07:38:44.688Z,26.93
2018-10-21T07:41:14.892Z,28.33
2018-10-21T07:43:45.280Z,23.57
2018-10-21T07:46:15.033Z,20.27
2018-10-21T07:48:45.165Z,18.37
2018-10-21T07:51:15.280Z,18.27
2018-10-21T07:53:45.553Z,16.73
2018-10-21T07:56:15.811Z,19.50
2018-10-21T07:58:46.087Z,18.93
2018-10-21T08:01:16.787Z,21.17
2018-10-21T08:03:47.322Z,19.10
2018-10-21T08:06:32.873Z,17.97
2018-10-21T08:09:03.409Z,22.63
2018-10-21T08:11:33.663Z,19.10
2018-10-21T08:14:04.196Z,16.60
2018-10-21T08:16:34.896Z,16.80
2018-10-21T08:19:05.130Z,21.23
2018-10-21T08:21:38.240Z,23.03
2018-10-21T08:24:12.150Z,17.60
2018-10-21T08:29:29.808Z,18.03
2018-10-21T08:32:01.101Z,16.93
2018-10-21T08:34:32.200Z,17.40
2018-10-21T08:37:04.613Z,19.67
2018-10-21T08:39:34.941Z,18.63
2018-10-21T08:42:06.256Z,18.40
2018-10-21T08:44:36.825Z,17.57
2018-10-21T08:47:08.572Z,22.63
2018-10-21T08:49:38.850Z,23.13
2018-10-21T08:52:10.081Z,22.17
2018-10-21T08:57:18.675Z,16.93
2018-10-21T08:59:48.997Z,16.80
2018-10-21T09:02:20.113Z,17.13
2018-10-21T09:04:50.756Z,16.10
2018-10-21T09:10:02.755Z,16.63
2018-10-21T09:12:38.915Z,15.63
2018-10-21T09:15:11.462Z,15.10
2018-10-21T09:17:41.817Z,15.20
2018-10-21T09:20:18.663Z,14.73
2018-10-21T09:22:48.829Z,17.07
2018-10-21T09:28:00.011Z,15.67
2018-10-21T09:30:30.881Z,14.60
2018-10-21T09:33:01.033Z,16.73
2018-10-21T09:38:14.817Z,17.37
2018-10-21T09:40:49.482Z,13.63
2018-10-21T09:43:19.611Z,16.10
2018-10-21T09:45:50.988Z,14.30
2018-10-21T09:48:32.727Z,15.13
2018-10-21T09:51:05.088Z,16.67
2018-10-21T09:53:44.808Z,17.03
2018-10-21T09:56:18.021Z,16.90
2018-10-21T09:58:53.795Z,16.27
2018-10-21T10:01:30.264Z,18.73
2018-10-21T10:04:04.775Z,24.20
2018-10-21T10:06:39.014Z,17.20
2018-10-21T10:09:15.466Z,12.57
2018-10-21T10:11:45.819Z,12.77
2018-10-21T10:14:16.844Z,15.93
2018-10-21T10:21:57.137Z,21.07
2018-10-21T10:24:33.804Z,15.80
2018-10-21T10:27:04.973Z,16.33
2018-10-21T10:29:42.900Z,14.70
2018-10-21T10:32:12.634Z,11.80
2018-10-21T10:34:42.779Z,13.23
2018-10-21T10:37:13.983Z,10.47
2018-10-21T10:39:47.967Z,12.37
2018-10-21T10:42:22.827Z,13.37
2018-10-21T10:44:57.686Z,13.87
2018-10-21T10:47:29.064Z,13.37
2018-10-21T10:50:02.987Z,10.33
2018-10-21T10:52:35.049Z,13.20
2018-10-21T10:55:17.817Z,10.83
2018-10-21T10:57:48.927Z,11.07
2018-10-21T11:03:00.878Z,11.13
2018-10-21T11:05:34.999Z,11.33
2018-10-21T11:08:16.625Z,12.17
2018-10-21T11:10:47.918Z,17.90
2018-10-21T11:13:24.807Z,10.27
2018-10-21T11:15:55.970Z,11.33
2018-10-21T11:21:08.720Z,11.73
2018-10-21T11:23:39.037Z,14.20
2018-10-21T11:26:10.876Z,11.73
2018-10-21T11:31:22.957Z,18.30
2018-10-21T11:33:55.891Z,12.93
2018-10-21T11:39:03.990Z,11.70
2018-10-21T11:41:34.999Z,16.03
2018-10-21T11:44:04.839Z,14.37
2018-10-21T11:49:10.857Z,10.43
2018-10-21T11:51:42.871Z,12.40
2018-10-21T11:56:54.011Z,11.53
2018-10-21T11:59:29.824Z,11.63
2018-10-21T12:02:02.013Z,11.33
2018-10-21T12:07:13.843Z,12.20
2018-10-21T12:09:47.014Z,13.97
2018-10-21T12:12:22.783Z,12.00
2018-10-21T12:17:33.789Z,10.17
2018-10-21T12:20:10.022Z,10.30
2018-10-21T12:22:42.793Z,10.20
2018-10-21T12:25:14.064Z,11.07
2018-10-21T12:27:45.874Z,10.87
2018-10-21T12:30:19.013Z,8.93
2018-10-21T12:35:28.017Z,10.67
2018-10-21T12:37:59.057Z,10.73
2018-10-21T12:40:36.120Z,9.80
2018-10-21T12:43:05.974Z,10.93
2018-10-21T12:48:13.630Z,10.67
2018-10-21T12:50:44.936Z,11.07
2018-10-21T12:53:19.081Z,12.40
2018-10-21T12:55:50.677Z,10.13
2018-10-21T13:01:06.642Z,10.80
2018-10-21T13:03:43.108Z,11.23
2018-10-21T13:06:19.028Z,15.27
2018-10-21T13:11:32.736Z,11.47
2018-10-21T13:14:02.950Z,10.67
2018-10-21T13:16:33.679Z,12.30
2018-10-21T13:19:13.527Z,12.90
2018-10-21T13:21:43.839Z,12.37
2018-10-21T13:24:20.156Z,11.27
2018-10-21T13:26:55.960Z,9.80
2018-10-21T13:32:02.888Z,12.87
2018-10-21T13:39:49.965Z,10.67
2018-10-21T13:42:22.110Z,11.20
2018-10-21T13:47:34.965Z,10.70
2018-10-21T13:50:10.908Z,10.80
2018-10-21T13:52:42.145Z,11.33
2018-10-21T13:57:53.902Z,10.53
2018-10-21T14:00:26.023Z,12.23
2018-10-21T14:02:57.830Z,13.20
2018-10-21T14:05:29.002Z,11.50
2018-10-21T14:08:01.180Z,12.13
2018-10-21T14:10:34.927Z,13.40
2018-10-21T14:15:48.073Z,19.13
2018-10-21T14:18:23.835Z,20.13
2018-10-21T14:23:35.033Z,15.73
2018-10-21T14:26:05.889Z,10.97
2018-10-21T14:28:40.855Z,11.77
2018-10-21T14:33:52.016Z,14.13
2018-10-21T14:36:21.748Z,11.33
2018-10-21T14:38:51.989Z,10.80
2018-10-21T14:44:07.652Z,12.20
2018-10-21T14:46:41.927Z,17.70
2018-10-21T14:49:12.430Z,15.03
2018-10-21T14:51:47.796Z,15.17
2018-10-21T14:54:19.042Z,19.03
2018-10-21T14:57:00.123Z,25.93
2018-10-21T14:59:31.474Z,31.20
2018-10-21T15:02:06.688Z,22.00
2018-10-21T15:04:36.802Z,19.00
2018-10-21T15:07:08.087Z,18.87
2018-10-21T15:09:42.103Z,23.37
2018-10-21T15:12:17.982Z,27.80
2018-10-21T15:17:33.916Z,27.63
2018-10-21T15:20:12.962Z,24.93
2018-10-21T15:22:45.055Z,23.37
2018-10-21T15:25:21.525Z,23.27
2018-10-21T15:27:51.952Z,25.67
2018-10-21T15:30:24.994Z,21.30
2018-10-21T15:32:56.984Z,23.17
2018-10-21T15:35:39.637Z,27.87
2018-10-21T15:41:10.992Z,33.93
2018-10-21T15:43:42.987Z,43.43
2018-10-21T15:46:29.093Z,61.07
2018-10-21T15:49:05.888Z,115.27
2018-10-21T15:51:37.037Z,146.90
2018-10-21T15:54:17.822Z,88.67
2018-10-21T15:56:49.453Z,69.97
2018-10-21T15:59:19.746Z,60.87
2018-10-21T16:04:30.825Z,164.83
2018-10-21T16:07:05.847Z,177.13
2018-10-21T16:09:40.817Z,174.83
2018-10-21T16:17:36.671Z,148.33
2018-10-21T16:20:12.157Z,364.00
2018-10-21T16:28:10.884Z,158.57
2018-10-21T16:33:24.835Z,99.93
2018-10-21T16:35:56.045Z,87.07
2018-10-21T16:38:35.994Z,93.20
2018-10-21T16:41:17.892Z,88.67
2018-10-21T16:43:53.846Z,81.97
2018-10-21T16:49:05.452Z,68.77
2018-10-21T16:51:45.968Z,61.67
2018-10-21T16:57:04.029Z,375.37
2018-10-21T16:59:44.784Z,499.53
2018-10-21T17:02:15.981Z,169.83
2018-10-21T17:04:48.866Z,140.07
2018-10-21T17:10:04.087Z,65.50
2018-10-21T17:12:36.937Z,69.40
2018-10-21T17:15:11.850Z,56.03
2018-10-21T17:17:43.439Z,73.90
2018-10-21T17:20:17.934Z,86.20
2018-10-21T17:22:59.841Z,75.37
2018-10-21T17:28:10.959Z,57.13
2018-10-21T17:30:50.950Z,56.67
2018-10-21T17:33:20.707Z,63.10
2018-10-21T17:35:51.942Z,59.27
2018-10-21T17:43:50.747Z,68.63
2018-10-21T17:46:25.062Z,87.77
2018-10-21T17:49:02.997Z,60.90
2018-10-21T17:54:16.023Z,84.90
2018-10-21T17:56:56.793Z,80.37
2018-10-21T17:59:29.458Z,65.90
2018-10-21T18:01:59.841Z,79.77
2018-10-21T18:04:39.792Z,103.90
2018-10-21T18:07:11.992Z,138.60
2018-10-21T18:09:49.894Z,111.83
2018-10-21T18:12:24.820Z,143.70
2018-10-21T18:20:16.812Z,74.97
2018-10-21T18:22:47.706Z,77.17
2018-10-21T18:28:05.014Z,54.63
2018-10-21T18:30:37.900Z,60.97
2018-10-21T18:33:12.954Z,90.47
2018-10-21T18:35:49.651Z,81.97
2018-10-21T18:38:25.813Z,60.53
2018-10-21T18:40:56.908Z,64.00
2018-10-21T18:46:13.808Z,72.23
2018-10-21T18:48:46.889Z,52.80
2018-10-21T18:51:28.768Z,76.43
2018-10-21T18:54:03.683Z,77.50
2018-10-21T18:56:38.627Z,75.73
2018-10-21T18:59:15.703Z,64.40
2018-10-21T19:07:16.585Z,49.13
2018-10-21T19:09:47.904Z,57.07
2018-10-21T19:12:22.793Z,58.77
2018-10-21T19:17:35.073Z,84.97
2018-10-21T19:22:56.767Z,59.43
2018-10-21T19:25:28.925Z,56.00
2018-10-21T19:30:36.795Z,41.10
2018-10-21T19:33:16.789Z,42.63
2018-10-21T19:35:47.829Z,37.43
2018-10-21T19:41:00.868Z,42.30
2018-10-21T19:46:13.814Z,419.10
2018-10-21T19:51:25.000Z,444.50
2018-10-21T19:54:04.091Z,134.73
2018-10-21T19:56:33.776Z,118.43
2018-10-21T19:59:05.085Z,113.93
2018-10-21T20:01:38.908Z,79.73
2018-10-21T20:06:51.213Z,58.97
2018-10-21T20:12:03.229Z,58.47
2018-10-21T20:14:40.021Z,50.00
2018-10-21T20:17:13.232Z,48.07
2018-10-21T20:19:48.904Z,65.63
2018-10-21T20:22:19.077Z,77.23
2018-10-21T20:24:50.616Z,65.77
2018-10-21T20:27:20.944Z,79.70
2018-10-21T20:32:27.330Z,54.70
2018-10-21T20:35:02.973Z,53.00
2018-10-21T20:42:44.859Z,56.90
2018-10-21T20:45:15.328Z,126.10
2018-10-21T20:47:45.777Z,152.57
2018-10-21T20:50:16.119Z,139.70
2018-10-21T20:52:46.563Z,76.03
2018-10-21T20:55:16.896Z,66.40
2018-10-21T20:57:47.188Z,100.77
2018-10-21T21:00:17.668Z,64.93
2018-10-21T21:02:48.106Z,64.70
2018-10-21T21:05:18.610Z,53.50
2018-10-21T21:07:49.063Z,74.33
2018-10-21T21:10:19.429Z,86.47
2018-10-21T21:12:49.875Z,70.23
2018-10-21T21:15:20.064Z,77.27
2018-10-21T21:17:50.552Z,66.23
2018-10-21T21:20:20.822Z,79.60
2018-10-21T21:22:51.295Z,96.33
2018-10-21T21:25:21.638Z,72.10
2018-10-21T21:27:52.012Z,105.70
2018-10-21T21:30:22.534Z,89.87
2018-10-21T21:32:52.870Z,107.37
2018-10-21T21:35:23.196Z,100.50
2018-10-21T21:37:52.948Z,106.60
2018-10-21T21:40:23.184Z,67.63
2018-10-21T21:42:53.955Z,83.63
2018-10-21T21:45:24.376Z,74.67
2018-10-21T21:47:54.742Z,107.60
2018-10-21T21:50:25.042Z,75.03
2018-10-21T21:52:55.451Z,55.07
2018-10-21T21:55:25.822Z,56.50
2018-10-21T21:57:56.267Z,54.40
2018-10-21T22:00:26.731Z,47.30
2018-10-21T22:02:57.071Z,48.00
2018-10-21T22:05:26.681Z,49.57
2018-10-21T22:07:56.870Z,54.77
2018-10-21T22:10:27.510Z,61.73
2018-10-21T22:12:57.939Z,53.00
2018-10-21T22:15:28.382Z,51.40
2018-10-21T22:17:58.292Z,52.40
2018-10-21T22:20:28.752Z,73.97
2018-10-21T22:22:59.071Z,77.33
2018-10-21T22:25:29.355Z,81.17
2018-10-21T22:27:59.794Z,78.13
2018-10-21T22:30:30.224Z,74.23
2018-10-21T22:33:00.686Z,75.73
2018-10-21T22:35:30.967Z,100.33
2018-10-21T22:38:01.486Z,132.47
2018-10-21T22:40:31.816Z,128.57
2018-10-21T22:43:02.295Z,96.90
2018-10-21T22:45:32.576Z,76.20
2018-10-21T22:48:03.050Z,90.13
2018-10-21T22:50:33.544Z,84.97
2018-10-21T22:53:04.064Z,72.93
2018-10-21T22:55:34.279Z,60.33
2018-10-21T22:58:04.726Z,73.63
2018-10-21T23:00:35.226Z,74.97
2018-10-21T23:03:05.670Z,56.40
2018-10-21T23:05:36.142Z,67.73
2018-10-21T23:08:06.731Z,56.00
2018-10-21T23:10:37.323Z,47.37
2018-10-21T23:13:07.775Z,51.53
2018-10-21T23:15:38.112Z,70.00
2018-10-21T23:18:08.825Z,44.93
2018-10-21T23:20:39.247Z,56.00
2018-10-21T23:23:09.617Z,63.50
2018-10-21T23:25:40.056Z,63.80
2018-10-21T23:28:10.748Z,59.67
2018-10-21T23:30:41.183Z,67.17
2018-10-21T23:33:11.030Z,62.70
2018-10-21T23:35:41.320Z,69.37
2018-10-21T23:38:11.062Z,71.93
2018-10-21T23:40:41.384Z,61.97
2018-10-21T23:43:11.755Z,63.93
2018-10-21T23:45:42.192Z,61.17
2018-10-21T23:48:12.585Z,68.77
2018-10-21T23:50:42.923Z,56.27
2018-10-21T23:53:13.404Z,57.13
2018-10-21T23:55:43.733Z,58.63
2018-10-21T23:58:14.299Z,58.77
